createdAt,value
2023-01-30T00:01:28.403Z,-1.95
2023-01-30T00:04:44.779Z,-1.95
2023-01-30T00:08:01.632Z,-1.96
2023-01-30T00:11:20.554Z,-1.93
2023-01-30T00:14:36.749Z,-1.93
2023-01-30T00:17:53.052Z,-1.91
2023-01-30T00:21:13.357Z,-1.97
2023-01-30T00:24:29.955Z,-1.99
2023-01-30T00:27:46.361Z,-1.95
2023-01-30T00:31:04.061Z,-1.91
2023-01-30T00:34:21.907Z,-1.89
2023-01-30T00:37:38.075Z,-1.87
2023-01-30T00:40:55.513Z,-1.87
2023-01-30T00:44:25.644Z,-1.95
2023-01-30T00:47:42.233Z,-1.91
2023-01-30T00:50:58.502Z,-1.95
2023-01-30T00:54:15.887Z,-1.95
2023-01-30T00:57:32.272Z,-1.93
2023-01-30T01:00:48.821Z,-1.91
2023-01-30T01:04:05.111Z,-1.96
2023-01-30T01:07:22.166Z,-2.00
2023-01-30T01:10:38.472Z,-1.97
2023-01-30T01:13:54.698Z,-1.90
2023-01-30T01:17:11.218Z,-1.81
2023-01-30T01:20:28.439Z,-1.74
2023-01-30T01:23:44.689Z,-1.72
2023-01-30T01:27:01.119Z,-1.73
2023-01-30T01:30:20.671Z,-1.79
2023-01-30T01:33:38.332Z,-1.82
2023-01-30T01:36:56.416Z,-1.83
2023-01-30T01:40:30.344Z,-1.87
2023-01-30T01:44:02.463Z,-1.92
2023-01-30T01:47:19.620Z,-1.99
2023-01-30T01:50:41.516Z,-2.04
2023-01-30T01:54:01.949Z,-2.09
2023-01-30T01:57:22.379Z,-2.06
2023-01-30T02:00:39.804Z,-2.06
2023-01-30T02:04:02.743Z,-2.08
2023-01-30T02:07:19.625Z,-2.10
2023-01-30T02:10:40.489Z,-2.16
2023-01-30T02:13:58.545Z,-2.20
2023-01-30T02:17:15.218Z,-2.21
2023-01-30T02:20:40.638Z,-2.21
2023-01-30T02:24:41.829Z,-2.26
2023-01-30T02:28:37.659Z,-2.32
2023-01-30T02:31:58.323Z,-2.31
2023-01-30T02:35:20.966Z,-2.27
2023-01-30T02:38:46.997Z,-2.34
2023-01-30T02:42:09.989Z,-2.33
2023-01-30T02:45:32.466Z,-2.39
2023-01-30T02:48:53.470Z,-2.50
2023-01-30T02:52:13.408Z,-2.51
2023-01-30T02:55:34.038Z,-2.49
2023-01-30T02:58:54.377Z,-2.51
2023-01-30T03:02:51.362Z,-2.50
2023-01-30T03:06:25.454Z,-2.52
2023-01-30T03:09:49.991Z,-2.58
2023-01-30T03:13:25.958Z,-2.58
2023-01-30T03:16:46.251Z,-2.59
2023-01-30T03:20:04.078Z,-2.57
2023-01-30T03:23:20.980Z,-2.62
2023-01-30T03:26:41.660Z,-2.63
2023-01-30T03:29:58.371Z,-2.73
2023-01-30T03:33:15.207Z,-2.77
2023-01-30T03:36:33.582Z,-2.86
2023-01-30T03:39:50.124Z,-2.98
2023-01-30T03:43:06.765Z,-2.94
2023-01-30T03:46:24.400Z,-2.86
2023-01-30T03:49:40.697Z,-2.89
2023-01-30T03:52:56.854Z,-2.82
2023-01-30T03:56:14.009Z,-2.77
2023-01-30T03:59:30.607Z,-2.81
2023-01-30T04:02:48.816Z,-2.77
2023-01-30T04:06:06.136Z,-2.77
2023-01-30T04:09:22.589Z,-2.84
2023-01-30T04:12:40.153Z,-2.84
2023-01-30T04:15:56.617Z,-2.86
2023-01-30T04:19:14.785Z,-2.99
2023-01-30T04:22:31.252Z,-2.90
2023-01-30T04:25:47.379Z,-2.91
2023-01-30T04:29:05.274Z,-2.93
2023-01-30T04:32:22.319Z,-2.84
2023-01-30T04:35:38.754Z,-2.79
2023-01-30T04:38:55.200Z,-2.95
2023-01-30T04:42:11.795Z,-2.91
2023-01-30T04:45:31.340Z,-2.94
2023-01-30T04:48:47.864Z,-2.81
2023-01-30T04:52:04.547Z,-2.75
2023-01-30T04:55:21.131Z,-2.74
2023-01-30T04:58:37.708Z,-2.79
2023-01-30T05:01:54.843Z,-2.82
2023-01-30T05:05:12.035Z,-2.87
2023-01-30T05:08:28.226Z,-2.85
2023-01-30T05:11:47.858Z,-2.74
2023-01-30T05:15:01.947Z,-2.75
2023-01-30T05:18:18.196Z,-2.69
2023-01-30T05:21:36.276Z,-2.69
2023-01-30T05:24:52.945Z,-2.61
2023-01-30T05:28:09.376Z,-2.78
2023-01-30T05:31:25.773Z,-2.80
2023-01-30T05:34:42.008Z,-2.82
2023-01-30T05:38:02.938Z,-2.88
2023-01-30T05:41:22.766Z,-2.90
2023-01-30T05:44:39.126Z,-2.76
2023-01-30T05:48:01.552Z,-2.74
2023-01-30T05:51:27.015Z,-2.64
2023-01-30T05:54:44.014Z,-2.60
2023-01-30T05:58:00.306Z,-2.56
2023-01-30T06:01:19.638Z,-2.71
2023-01-30T06:04:36.310Z,-2.66
2023-01-30T06:07:52.494Z,-2.60
2023-01-30T06:11:13.846Z,-2.77
2023-01-30T06:14:30.138Z,-2.70
2023-01-30T06:17:49.445Z,-2.67
2023-01-30T06:21:05.779Z,-2.57
2023-01-30T06:24:23.548Z,-2.53
2023-01-30T06:27:39.791Z,-2.46
2023-01-30T06:30:56.629Z,-2.40
2023-01-30T06:34:13.120Z,-2.52
2023-01-30T06:37:29.492Z,-2.57
2023-01-30T06:40:46.189Z,-2.52
2023-01-30T06:44:02.502Z,-2.42
2023-01-30T06:47:18.776Z,-2.42
2023-01-30T06:50:37.511Z,-2.27
2023-01-30T06:53:53.835Z,-2.21
2023-01-30T06:57:10.535Z,-2.13
2023-01-30T07:00:29.295Z,-2.05
2023-01-30T07:03:45.790Z,-1.99
2023-01-30T07:07:02.190Z,-1.99
2023-01-30T07:10:20.219Z,-2.05
2023-01-30T07:13:36.686Z,-2.11
2023-01-30T07:16:52.990Z,-2.09
2023-01-30T07:20:10.154Z,-1.99
2023-01-30T07:23:28.319Z,-2.01
2023-01-30T07:26:44.903Z,-1.95
2023-01-30T07:30:01.789Z,-1.85
2023-01-30T07:33:21.303Z,-1.81
2023-01-30T07:36:38.633Z,-1.69
2023-01-30T07:39:55.138Z,-1.65
2023-01-30T07:43:15.335Z,-1.56
2023-01-30T07:46:35.975Z,-1.51
2023-01-30T07:49:52.604Z,-1.37
2023-01-30T07:53:10.783Z,-1.31
2023-01-30T07:56:28.132Z,-1.21
2023-01-30T07:59:44.693Z,-1.15
2023-01-30T08:03:01.083Z,-1.10
2023-01-30T08:06:18.176Z,-1.14
2023-01-30T08:09:34.578Z,-1.05
2023-01-30T08:12:53.989Z,-1.05
2023-01-30T08:16:13.928Z,-0.99
2023-01-30T08:19:30.841Z,-1.01
2023-01-30T08:22:47.656Z,-0.90
2023-01-30T08:26:08.225Z,-0.87
2023-01-30T08:29:24.914Z,-0.84
2023-01-30T08:32:41.175Z,-0.87
2023-01-30T08:35:57.669Z,-0.74
2023-01-30T08:39:16.663Z,-0.66
2023-01-30T08:42:32.873Z,-0.60
2023-01-30T08:45:49.354Z,-0.56
2023-01-30T08:49:05.400Z,-0.50
2023-01-30T08:52:22.138Z,-0.33
2023-01-30T08:55:38.310Z,-0.15
2023-01-30T08:58:54.778Z,-0.03
2023-01-30T09:02:13.933Z,0.12
2023-01-30T09:05:28.252Z,0.23
2023-01-30T09:08:44.470Z,0.35
2023-01-30T09:12:00.941Z,0.45
2023-01-30T09:15:21.080Z,0.54
2023-01-30T09:18:38.469Z,0.59
2023-01-30T09:21:56.372Z,0.67
2023-01-30T09:25:14.474Z,0.70
2023-01-30T09:28:31.388Z,0.82
2023-01-30T09:31:49.383Z,0.76
2023-01-30T09:35:05.918Z,0.79
2023-01-30T09:38:25.182Z,0.71
2023-01-30T09:42:09.630Z,0.65
2023-01-30T09:45:50.858Z,0.67
2023-01-30T09:49:13.824Z,0.70
2023-01-30T09:52:37.062Z,0.59
2023-01-30T09:55:54.856Z,0.55
2023-01-30T09:59:13.160Z,0.50
2023-01-30T10:02:50.202Z,0.55
2023-01-30T10:06:12.614Z,0.48
2023-01-30T10:09:35.647Z,0.47
2023-01-30T10:12:59.519Z,0.51
2023-01-30T10:16:23.969Z,0.52
2023-01-30T10:20:00.183Z,0.46
2023-01-30T10:23:31.630Z,0.53
2023-01-30T10:26:50.382Z,0.45
2023-01-30T10:30:11.587Z,0.53
2023-01-30T10:33:34.622Z,0.63
2023-01-30T10:36:57.569Z,0.64
2023-01-30T10:40:21.076Z,0.61
2023-01-30T10:43:42.416Z,0.69
2023-01-30T10:47:24.371Z,0.68
2023-01-30T10:50:50.246Z,0.62
2023-01-30T10:54:14.220Z,0.67
2023-01-30T10:57:35.349Z,0.71
2023-01-30T11:00:55.695Z,0.78
2023-01-30T11:04:16.676Z,0.80
2023-01-30T11:07:33.213Z,0.73
2023-01-30T11:10:49.583Z,0.75
2023-01-30T11:14:15.145Z,0.73
2023-01-30T11:17:40.172Z,0.66
2023-01-30T11:21:10.705Z,0.81
2023-01-30T11:24:30.752Z,0.74
2023-01-30T11:27:49.556Z,0.79
2023-01-30T11:31:09.687Z,0.77
2023-01-30T11:34:29.389Z,0.70
2023-01-30T11:37:45.520Z,0.61
2023-01-30T11:41:20.067Z,0.62
2023-01-30T11:44:43.151Z,0.55
2023-01-30T11:48:04.687Z,0.56
2023-01-30T11:51:22.022Z,0.58
2023-01-30T11:54:43.236Z,0.64
2023-01-30T11:58:02.841Z,0.78
2023-01-30T12:01:22.794Z,0.75
2023-01-30T12:04:41.273Z,0.70
2023-01-30T12:07:58.921Z,0.70
2023-01-30T12:11:32.772Z,0.52
2023-01-30T12:14:52.921Z,0.41
2023-01-30T12:18:15.452Z,0.36
2023-01-30T12:21:43.163Z,0.36
2023-01-30T12:25:13.270Z,0.43
2023-01-30T12:28:53.664Z,0.46
2023-01-30T12:32:43.331Z,0.48
2023-01-30T12:36:16.800Z,0.44
2023-01-30T12:39:58.020Z,0.39
2023-01-30T12:43:48.265Z,0.45
2023-01-30T12:47:43.793Z,0.48
2023-01-30T12:51:18.940Z,0.55
2023-01-30T12:54:54.432Z,0.63
2023-01-30T12:58:16.654Z,0.72
2023-01-30T13:01:41.359Z,0.73
2023-01-30T13:05:07.569Z,0.69
2023-01-30T13:09:02.602Z,0.76
2023-01-30T13:12:27.532Z,0.75
2023-01-30T13:15:57.959Z,0.71
2023-01-30T13:19:40.394Z,0.74
2023-01-30T13:22:52.748Z,0.79
2023-01-30T13:26:15.253Z,0.86
2023-01-30T13:29:36.821Z,0.96
2023-01-30T13:32:57.560Z,0.90
2023-01-30T13:36:25.589Z,0.86
2023-01-30T13:39:57.005Z,0.83
2023-01-30T14:05:14.528Z,0.78
2023-01-30T14:17:01.538Z,0.85
2023-01-30T14:34:00.260Z,0.82
2023-01-30T14:38:02.573Z,0.80
2023-01-30T14:41:40.335Z,0.87
2023-01-30T14:45:20.935Z,0.89
2023-01-30T14:48:57.665Z,0.91
2023-01-30T14:52:32.645Z,0.92
2023-01-30T14:55:57.927Z,0.91
2023-01-30T15:02:38.650Z,0.99
2023-01-30T15:06:07.591Z,1.03
2023-01-30T15:09:34.277Z,1.02
2023-01-30T15:19:04.322Z,1.18
2023-01-30T15:22:36.109Z,1.24
2023-01-30T15:26:13.464Z,1.22
2023-01-30T15:29:59.749Z,1.23
2023-01-30T15:33:35.725Z,1.28
2023-01-30T15:36:53.703Z,1.33
2023-01-30T15:40:35.862Z,1.26
2023-01-30T15:49:57.645Z,1.32
2023-01-30T15:53:18.853Z,1.35
2023-01-30T15:56:39.679Z,1.31
2023-01-30T16:03:19.477Z,1.29
2023-01-30T16:06:43.472Z,1.24
2023-01-30T16:10:08.032Z,1.21
2023-01-30T16:13:25.534Z,1.25
2023-01-30T16:16:43.499Z,1.22
2023-01-30T16:20:00.295Z,1.25
2023-01-30T16:23:30.644Z,1.29
2023-01-30T16:26:52.150Z,1.31
2023-01-30T16:30:14.016Z,1.26
2023-01-30T16:33:32.617Z,1.29
2023-01-30T16:36:53.857Z,1.37
2023-01-30T16:40:23.889Z,1.39
2023-01-30T16:43:42.900Z,1.43
2023-01-30T16:50:24.945Z,1.50
2023-01-30T16:53:44.865Z,1.52
2023-01-30T16:57:03.063Z,1.57
2023-01-30T17:03:38.610Z,1.65
2023-01-30T17:07:09.481Z,1.70
2023-01-30T17:11:07.672Z,1.77
2023-01-30T17:17:40.120Z,1.79
2023-01-30T17:20:57.057Z,1.78
2023-01-30T17:24:16.574Z,1.84
2023-01-30T17:27:35.088Z,1.88
2023-01-30T17:30:53.555Z,1.89
2023-01-30T17:34:12.328Z,1.90
2023-01-30T17:37:30.423Z,1.98
2023-01-30T17:40:48.700Z,2.03
2023-01-30T17:44:07.185Z,2.01
2023-01-30T17:50:40.377Z,2.07
2023-01-30T17:53:57.159Z,2.08
2023-01-30T17:57:16.691Z,2.09
2023-01-30T18:00:34.045Z,2.12
2023-01-30T18:03:50.735Z,2.14
2023-01-30T18:07:11.825Z,2.14
2023-01-30T18:10:30.944Z,2.16
2023-01-30T18:13:48.601Z,2.17
2023-01-30T18:17:06.155Z,2.20
2023-01-30T18:20:26.993Z,2.20
2023-01-30T18:23:46.748Z,2.21
2023-01-30T18:27:09.149Z,2.25
2023-01-30T18:30:25.779Z,2.30
2023-01-30T18:33:41.974Z,2.33
2023-01-30T18:37:01.657Z,2.36
2023-01-30T18:40:20.976Z,2.35
2023-01-30T18:43:41.816Z,2.37
2023-01-30T18:47:02.183Z,2.39
2023-01-30T18:50:23.164Z,2.32
2023-01-30T18:53:42.265Z,2.30
2023-01-30T18:57:01.052Z,2.34
2023-01-30T19:00:41.986Z,2.31
2023-01-30T19:04:23.034Z,2.33
2023-01-30T19:07:52.209Z,2.30
2023-01-30T19:11:30.547Z,2.32
2023-01-30T19:14:50.221Z,2.34
2023-01-30T19:18:06.898Z,2.34
2023-01-30T19:21:24.679Z,2.36
2023-01-30T19:24:50.651Z,2.40
2023-01-30T19:28:17.996Z,2.40
2023-01-30T19:31:36.998Z,2.43
2023-01-30T19:34:55.373Z,2.45
2023-01-30T19:38:12.167Z,2.43
2023-01-30T19:41:32.867Z,2.46
2023-01-30T19:44:49.755Z,2.49
2023-01-30T19:48:06.609Z,2.52
2023-01-30T19:51:29.947Z,2.51
2023-01-30T19:54:47.762Z,2.56
2023-01-30T19:58:06.267Z,2.54
2023-01-30T20:01:25.275Z,2.52
2023-01-30T20:04:41.859Z,2.59
2023-01-30T20:08:02.070Z,2.60
2023-01-30T20:11:22.845Z,2.56
2023-01-30T20:14:40.818Z,2.61
2023-01-30T20:17:57.557Z,2.65
2023-01-30T20:21:20.216Z,2.66
2023-01-30T20:24:39.393Z,2.62
2023-01-30T20:27:55.690Z,2.63
2023-01-30T20:31:17.460Z,2.67
2023-01-30T20:34:34.495Z,2.64
2023-01-30T20:37:51.337Z,2.66
2023-01-30T20:41:16.124Z,2.62
2023-01-30T20:44:34.410Z,2.56
2023-01-30T20:47:50.943Z,2.61
2023-01-30T20:51:14.494Z,2.54
2023-01-30T20:54:35.156Z,2.56
2023-01-30T20:57:55.575Z,2.63
2023-01-30T21:01:28.026Z,2.64
2023-01-30T21:04:55.746Z,2.62
2023-01-30T21:08:15.659Z,2.54
2023-01-30T21:11:34.185Z,2.55
2023-01-30T21:14:53.675Z,2.48
2023-01-30T21:18:11.712Z,2.35
2023-01-30T21:21:31.645Z,2.35
2023-01-30T21:24:49.169Z,2.25
2023-01-30T21:28:05.514Z,2.18
2023-01-30T21:31:25.689Z,2.24
2023-01-30T21:34:42.136Z,2.22
2023-01-30T21:38:12.450Z,2.14
2023-01-30T21:41:42.641Z,2.13
2023-01-30T21:44:58.985Z,2.07
2023-01-30T21:48:15.970Z,2.07
2023-01-30T21:51:32.969Z,2.09
2023-01-30T21:54:50.710Z,2.03
2023-01-30T21:58:11.147Z,2.08
2023-01-30T22:01:28.102Z,2.08
2023-01-30T22:04:45.654Z,2.05
2023-01-30T22:08:05.689Z,2.04
2023-01-30T22:11:24.759Z,2.00
2023-01-30T22:14:41.061Z,2.05
2023-01-30T22:17:57.832Z,2.02
2023-01-30T22:21:17.761Z,2.00
2023-01-30T22:24:34.341Z,2.03
2023-01-30T22:27:50.512Z,2.03
2023-01-30T22:31:16.641Z,1.97
2023-01-30T22:34:35.624Z,1.99
2023-01-30T22:37:51.354Z,1.98
2023-01-30T22:41:14.760Z,1.98
2023-01-30T22:44:31.417Z,1.97
2023-01-30T22:47:49.496Z,1.97
2023-01-30T22:51:16.636Z,1.97
2023-01-30T22:54:35.772Z,1.99
2023-01-30T22:57:51.952Z,1.93
2023-01-30T23:01:16.866Z,1.85
2023-01-30T23:04:33.771Z,1.91
2023-01-30T23:07:49.969Z,1.92
2023-01-30T23:11:09.373Z,1.91
2023-01-30T23:14:24.786Z,1.89
2023-01-30T23:17:54.756Z,1.92
2023-01-30T23:21:13.329Z,1.89
2023-01-30T23:24:30.483Z,1.92
2023-01-30T23:27:47.200Z,1.92
2023-01-30T23:31:03.516Z,1.86
2023-01-30T23:34:23.456Z,1.88
2023-01-30T23:37:55.166Z,1.91
2023-01-30T23:41:21.387Z,1.85
2023-01-30T23:44:38.107Z,1.88
2023-01-30T23:47:54.239Z,1.92
2023-01-30T23:51:12.263Z,1.95
2023-01-30T23:54:30.282Z,1.78
2023-01-30T23:57:46.717Z,1.70
